Catàleg de serveis del Meteocat
Campanya meteocatpedra

Dades de l'estació automàtica Os de Balaguer - el Monestir d'Avellanes

?
?
Resum diari 21:30 TU
Dades diàries de l'estació meteorològica
Temperatura mitjana 23.1 °C
Temperatura màxima 30.3 °C 16:29 TU
Temperatura mínima 16.4 °C 5:25 TU
Humitat relativa mitjana 59%
Precipitació acumulada 0.0 mm
Ratxa màxima del vent (6 m) 21.2 km/h - 275º 14:18 TU
Irradiació solar global 29.4 MJ/m2

El tram horari està expressat en Temps Universal (TU). Cal sumar una hora en horari d'hivern i dues en horari d'estiu per passar a l'hora oficial.

Os de Balaguer - el Monestir d'Avellanes

Metadades estació meteorol´gica
Municipi Os de Balaguer
Comarca Noguera
Altitud 576 m
Data alta 07.07.1995
Estat actual Operativa
Dades de període
Període
TU
TM
°C
TX
°C
TN
°C
HRM
%
PPT
mm
VVM (6 m)
km/h
DVM (6 m)
graus
VVX (6 m)
km/h
RS
W/m2
00:00 - 00:30 17.5 17.7 17.3 78 0.0 2.2 29 5.4 0
00:30 - 01:00 17.6 17.7 17.4 77 0.0 2.2 38 4.7 0
01:00 - 01:30 17.4 17.6 17.2 79 0.0 1.4 37 4.7 0
01:30 - 02:00 17.6 18.0 17.3 79 0.0 1.8 88 3.6 0
02:00 - 02:30 17.1 17.4 16.9 81 0.0 0.7 98 2.5 0
02:30 - 03:00 16.8 16.9 16.6 83 0.0 0.0 185 1.1 0
03:00 - 03:30 17.2 17.5 17.0 81 0.0 0.0 0 0.0 0
03:30 - 04:00 17.0 17.2 16.9 81 0.0 0.0 166 2.2 0
04:00 - 04:30 17.1 17.4 17.0 82 0.0 0.0 117 1.1 0
04:30 - 05:00 17.5 17.7 17.3 82 0.0 1.1 211 8.6 10
05:00 - 05:30 16.6 17.3 16.4 85 0.0 0.4 245 2.9 40
05:30 - 06:00 17.4 18.0 16.6 84 0.0 1.1 233 5.8 110
06:00 - 06:30 18.3 18.6 17.9 82 0.0 1.8 236 6.8 141
06:30 - 07:00 18.6 18.9 18.3 81 0.0 2.2 252 7.2 151
07:00 - 07:30 19.7 20.6 19.0 77 0.0 3.6 231 8.6 344
07:30 - 08:00 20.7 21.2 20.2 71 0.0 3.6 244 10.4 484
08:00 - 08:30 21.4 21.7 20.9 69 0.0 4.7 239 11.5 591
08:30 - 09:00 22.1 22.6 21.6 67 0.0 5.4 249 14.4 678
09:00 - 09:30 22.5 23.2 22.0 65 0.0 5.0 215 12.6 746
09:30 - 10:00 23.5 24.3 22.7 62 0.0 5.0 225 14.0 819
10:00 - 10:30 24.5 25.2 23.8 59 0.0 5.4 221 16.6 877
10:30 - 11:00 25.2 25.7 24.9 55 0.0 6.8 242 15.8 922
11:00 - 11:30 25.9 26.7 25.5 54 0.0 6.5 244 16.2 949
11:30 - 12:00 26.6 26.9 26.3 52 0.0 7.6 258 18.0 980
12:00 - 12:30 27.3 28.9 26.6 50 0.0 6.1 247 18.0 978
12:30 - 13:00 28.1 28.7 27.2 49 0.0 6.5 234 19.4 952
13:00 - 13:30 28.6 29.2 27.9 47 0.0 6.5 247 17.3 931
13:30 - 14:00 28.9 29.6 28.3 45 0.0 6.8 255 20.2 883
14:00 - 14:30 29.6 30.2 29.2 41 0.0 7.9 257 21.2 844
14:30 - 15:00 29.4 29.7 28.9 39 0.0 6.8 261 21.2 701
15:00 - 15:30 29.5 30.1 28.9 36 0.0 6.5 252 20.9 660
15:30 - 16:00 29.8 30.0 29.4 34 0.0 6.1 253 20.5 644
16:00 - 16:30 29.8 30.3 29.4 32 0.0 6.8 254 20.9 545
16:30 - 17:00 29.9 30.3 29.7 30 0.0 6.8 260 17.3 452
17:00 - 17:30 29.9 30.2 29.6 28 0.0 7.6 269 18.0 359
17:30 - 18:00 29.3 29.5 28.9 28 0.0 8.3 278 17.6 262
18:00 - 18:30 28.7 29.1 27.9 28 0.0 6.5 277 13.3 164
18:30 - 19:00 27.0 27.9 25.4 31 0.0 2.2 277 9.0 76
19:00 - 19:30 24.4 25.3 23.8 36 0.0 1.1 237 4.0 13
19:30 - 20:00 23.1 23.8 22.7 37 0.0 1.1 191 3.6 3
20:00 - 20:30 22.4 22.6 22.2 39 0.0 1.4 120 5.4 2
20:30 - 21:00 21.7 22.2 21.2 49 0.0 2.2 93 13.3 2
21:00 - 21:30 20.6 21.5 19.8 64 0.0 1.8 107 11.5 3
21:30 - 22:00 20.7 21.2 20.5 68 0.0 3.6 92 10.4 3

Les dades en taronja només han passat un control de qualitat automàtic. Resta pendent la seva validació definitiva.